Terminal Aerodrome Forecast
Issued by NWS

Home | Current Version | Previous Version | Text Only | Print | Product List | Glossary On
Versions: 1 2 3 4 5 6 7 8 9 10 11 12 13 14 15 16 17 18 19 20 21 22 23 24 25 26 27 28 29 30 31
000
FTUS42 KCAE 281720
TAFDNL
TAF
KDNL 281720Z 2818/2918 07008KT P6SM BKN040
     FM290200 09003KT P6SM SCT250
     FM290900 VRB03KT P6SM SCT015 BKN150
     FM291500 09005KT P6SM SCT025 BKN250=

USA.gov is the U.S. government's official web portal to all federal, state and local government web resources and services.